sensor_id;sensor_type;location;lat;lon;timestamp;pressure;altitude;pressure_sealevel;temperature;humidity
13869;BME280;7004;48.206;16.402;2023-03-23T00:01:27;99343.69;;;11.39;64.20
13869;BME280;7004;48.206;16.402;2023-03-23T00:03:57;99340.00;;;11.53;63.92
13869;BME280;7004;48.206;16.402;2023-03-23T00:06:27;99344.78;;;11.24;64.87
13869;BME280;7004;48.206;16.402;2023-03-23T00:08:54;99347.53;;;11.46;64.01
13869;BME280;7004;48.206;16.402;2023-03-23T00:11:29;99340.63;;;11.32;64.42
13869;BME280;7004;48.206;16.402;2023-03-23T00:13:58;99338.06;;;11.31;64.48
13869;BME280;7004;48.206;16.402;2023-03-23T00:16:32;99337.47;;;11.27;64.72
13869;BME280;7004;48.206;16.402;2023-03-23T00:19:05;99338.97;;;11.19;65.20
13869;BME280;7004;48.206;16.402;2023-03-23T00:21:37;99343.47;;;11.05;65.80
13869;BME280;7004;48.206;16.402;2023-03-23T00:26:34;99338.41;;;10.89;66.09
13869;BME280;7004;48.206;16.402;2023-03-23T00:29:05;99333.97;;;10.90;66.51
13869;BME280;7004;48.206;16.402;2023-03-23T00:31:33;99331.56;;;10.74;67.23
13869;BME280;7004;48.206;16.402;2023-03-23T00:34:03;99336.00;;;10.74;67.65
13869;BME280;7004;48.206;16.402;2023-03-23T00:36:32;99326.38;;;10.85;66.36
13869;BME280;7004;48.206;16.402;2023-03-23T00:39:03;99327.34;;;10.84;66.54
13869;BME280;7004;48.206;16.402;2023-03-23T00:41:30;99322.84;;;10.98;66.45
13869;BME280;7004;48.206;16.402;2023-03-23T00:43:58;99329.56;;;10.78;67.32
13869;BME280;7004;48.206;16.402;2023-03-23T00:46:26;99331.19;;;11.04;66.31
13869;BME280;7004;48.206;16.402;2023-03-23T00:48:56;99338.44;;;10.77;67.34
13869;BME280;7004;48.206;16.402;2023-03-23T00:51:23;99331.22;;;10.91;66.84
13869;BME280;7004;48.206;16.402;2023-03-23T00:53:50;99329.72;;;11.00;66.54
13869;BME280;7004;48.206;16.402;2023-03-23T00:56:17;99329.72;;;11.00;66.46
13869;BME280;7004;48.206;16.402;2023-03-23T00:58:43;99324.56;;;10.86;67.48
13869;BME280;7004;48.206;16.402;2023-03-23T01:01:09;99323.94;;;10.82;67.39
13869;BME280;7004;48.206;16.402;2023-03-23T01:03:36;99333.59;;;10.45;69.04
13869;BME280;7004;48.206;16.402;2023-03-23T01:06:10;99328.09;;;10.48;69.20
13869;BME280;7004;48.206;16.402;2023-03-23T01:08:40;99326.09;;;10.52;69.05
13869;BME280;7004;48.206;16.402;2023-03-23T01:11:16;99321.13;;;10.47;69.60
13869;BME280;7004;48.206;16.402;2023-03-23T01:13:43;99317.19;;;10.65;68.95
13869;BME280;7004;48.206;16.402;2023-03-23T01:16:10;99319.28;;;10.73;68.57
13869;BME280;7004;48.206;16.402;2023-03-23T01:18:37;99314.66;;;10.77;68.50
13869;BME280;7004;48.206;16.402;2023-03-23T01:21:10;99319.31;;;10.60;69.13
13869;BME280;7004;48.206;16.402;2023-03-23T01:23:37;99321.94;;;10.47;70.02
13869;BME280;7004;48.206;16.402;2023-03-23T01:26:26;99331.69;;;10.34;71.32
13869;BME280;7004;48.206;16.402;2023-03-23T01:28:53;99328.81;;;10.37;70.72
13869;BME280;7004;48.206;16.402;2023-03-23T01:31:23;99326.72;;;10.30;71.08
13869;BME280;7004;48.206;16.402;2023-03-23T01:33:50;99327.72;;;10.14;71.59
13869;BME280;7004;48.206;16.402;2023-03-23T01:36:21;99327.53;;;10.17;71.69
13869;BME280;7004;48.206;16.402;2023-03-23T01:38:49;99323.22;;;10.29;71.38
13869;BME280;7004;48.206;16.402;2023-03-23T01:41:17;99325.50;;;10.08;72.03
13869;BME280;7004;48.206;16.402;2023-03-23T01:46:21;99315.44;;;10.27;71.38
13869;BME280;7004;48.206;16.402;2023-03-23T01:48:49;99309.56;;;9.97;72.97
13869;BME280;7004;48.206;16.402;2023-03-23T01:51:18;99309.81;;;9.79;73.68
13869;BME280;7004;48.206;16.402;2023-03-23T01:53:59;99298.03;;;9.98;73.50
13869;BME280;7004;48.206;16.402;2023-03-23T01:56:32;99300.88;;;9.82;73.90
13869;BME280;7004;48.206;16.402;2023-03-23T01:59:04;99307.59;;;9.73;74.59
13869;BME280;7004;48.206;16.402;2023-03-23T02:01:31;99307.69;;;9.72;74.46
13869;BME280;7004;48.206;16.402;2023-03-23T02:04:02;99309.81;;;9.79;74.35
13869;BME280;7004;48.206;16.402;2023-03-23T02:06:29;99313.59;;;9.75;75.19
13869;BME280;7004;48.206;16.402;2023-03-23T02:08:56;99317.97;;;9.76;74.80
13869;BME280;7004;48.206;16.402;2023-03-23T02:11:22;99320.53;;;9.51;75.83
13869;BME280;7004;48.206;16.402;2023-03-23T02:13:49;99320.06;;;9.44;76.28
13869;BME280;7004;48.206;16.402;2023-03-23T02:26:53;99319.34;;;9.42;76.73
13869;BME280;7004;48.206;16.402;2023-03-23T02:35:12;99319.63;;;9.37;77.29
13869;BME280;7004;48.206;16.402;2023-03-23T02:38:40;99317.19;;;9.34;77.51
13869;BME280;7004;48.206;16.402;2023-03-23T02:40:49;99318.16;;;9.46;76.87
13869;BME280;7004;48.206;16.402;2023-03-23T02:43:22;99311.00;;;9.48;76.56
13869;BME280;7004;48.206;16.402;2023-03-23T02:45:51;99312.41;;;9.54;76.22
13869;BME280;7004;48.206;16.402;2023-03-23T02:48:24;99315.88;;;9.27;77.26
13869;BME280;7004;48.206;16.402;2023-03-23T02:50:53;99312.25;;;9.43;76.49
13869;BME280;7004;48.206;16.402;2023-03-23T02:53:23;99325.84;;;9.36;76.99
13869;BME280;7004;48.206;16.402;2023-03-23T02:55:51;99329.28;;;9.24;77.22
13869;BME280;7004;48.206;16.402;2023-03-23T02:58:19;99339.63;;;8.86;79.20
13869;BME280;7004;48.206;16.402;2023-03-23T03:00:46;99338.25;;;9.07;78.38
13869;BME280;7004;48.206;16.402;2023-03-23T03:03:19;99336.47;;;9.08;77.94
13869;BME280;7004;48.206;16.402;2023-03-23T03:08:37;99332.28;;;9.18;77.95
13869;BME280;7004;48.206;16.402;2023-03-23T03:11:18;99334.09;;;9.17;78.10
13869;BME280;7004;48.206;16.402;2023-03-23T03:14:01;99332.97;;;9.07;79.05
13869;BME280;7004;48.206;16.402;2023-03-23T03:16:43;99335.91;;;9.03;79.22
13869;BME280;7004;48.206;16.402;2023-03-23T03:19:25;99340.53;;;9.13;78.76
13869;BME280;7004;48.206;16.402;2023-03-23T03:21:56;99336.53;;;9.21;78.43
13869;BME280;7004;48.206;16.402;2023-03-23T03:24:28;99338.06;;;9.10;78.54
13869;BME280;7004;48.206;16.402;2023-03-23T03:26:58;99338.72;;;9.00;78.57
13869;BME280;7004;48.206;16.402;2023-03-23T03:29:32;99326.88;;;9.07;79.16
13869;BME280;7004;48.206;16.402;2023-03-23T03:32:03;99329.81;;;8.88;78.91
13869;BME280;7004;48.206;16.402;2023-03-23T03:34:33;99331.63;;;8.87;80.25
13869;BME280;7004;48.206;16.402;2023-03-23T03:37:00;99331.38;;;9.05;79.20
13869;BME280;7004;48.206;16.402;2023-03-23T03:39:27;99338.75;;;8.71;80.03
13869;BME280;7004;48.206;16.402;2023-03-23T03:41:54;99339.44;;;8.60;80.92
13869;BME280;7004;48.206;16.402;2023-03-23T03:44:21;99332.75;;;8.55;81.46
13869;BME280;7004;48.206;16.402;2023-03-23T03:46:47;99338.69;;;8.58;81.17
13869;BME280;7004;48.206;16.402;2023-03-23T03:49:13;99335.47;;;8.53;81.24
13869;BME280;7004;48.206;16.402;2023-03-23T03:51:40;99344.41;;;8.50;81.27
13869;BME280;7004;48.206;16.402;2023-03-23T03:54:06;99347.16;;;8.19;83.40
13869;BME280;7004;48.206;16.402;2023-03-23T03:56:33;99339.28;;;8.19;83.70
13869;BME280;7004;48.206;16.402;2023-03-23T03:59:02;99342.22;;;8.28;83.46
13869;BME280;7004;48.206;16.402;2023-03-23T04:01:28;99344.16;;;8.10;84.58
13869;BME280;7004;48.206;16.402;2023-03-23T04:03:55;99339.19;;;8.20;84.89
13869;BME280;7004;48.206;16.402;2023-03-23T04:06:22;99339.59;;;8.43;83.99
13869;BME280;7004;48.206;16.402;2023-03-23T04:08:48;99342.50;;;8.38;83.62
13869;BME280;7004;48.206;16.402;2023-03-23T04:11:15;99342.25;;;8.43;83.83
13869;BME280;7004;48.206;16.402;2023-03-23T04:13:41;99341.78;;;8.50;83.46
13869;BME280;7004;48.206;16.402;2023-03-23T04:16:08;99354.31;;;8.17;84.82
13869;BME280;7004;48.206;16.402;2023-03-23T04:18:35;99346.34;;;8.32;84.73
13869;BME280;7004;48.206;16.402;2023-03-23T04:21:04;99346.53;;;8.29;84.35
13869;BME280;7004;48.206;16.402;2023-03-23T04:23:31;99341.41;;;8.57;84.07
13869;BME280;7004;48.206;16.402;2023-03-23T04:25:59;99336.03;;;8.58;83.21
13869;BME280;7004;48.206;16.402;2023-03-23T04:28:27;99335.94;;;8.45;83.55
13869;BME280;7004;48.206;16.402;2023-03-23T04:30:54;99338.34;;;8.34;84.17
13869;BME280;7004;48.206;16.402;2023-03-23T04:33:23;99332.13;;;8.35;83.80
13869;BME280;7004;48.206;16.402;2023-03-23T04:36:00;99335.28;;;8.42;83.90
13869;BME280;7004;48.206;16.402;2023-03-23T04:38:27;99338.44;;;8.18;84.59
13869;BME280;7004;48.206;16.402;2023-03-23T04:40:54;99336.31;;;8.39;85.06
13869;BME280;7004;48.206;16.402;2023-03-23T04:43:22;99342.00;;;8.62;83.57
13869;BME280;7004;48.206;16.402;2023-03-23T04:45:57;99336.44;;;8.22;85.00
13869;BME280;7004;48.206;16.402;2023-03-23T04:48:30;99338.81;;;8.12;86.00
13869;BME280;7004;48.206;16.402;2023-03-23T04:51:02;99332.13;;;8.21;85.89
13869;BME280;7004;48.206;16.402;2023-03-23T04:53:32;99342.53;;;8.08;85.26
13869;BME280;7004;48.206;16.402;2023-03-23T04:55:58;99340.69;;;7.80;88.03
13869;BME280;7004;48.206;16.402;2023-03-23T04:58:27;99335.53;;;8.23;85.48
13869;BME280;7004;48.206;16.402;2023-03-23T05:00:55;99343.50;;;8.21;85.38
13869;BME280;7004;48.206;16.402;2023-03-23T05:03:21;99347.91;;;7.76;87.08
13869;BME280;7004;48.206;16.402;2023-03-23T05:05:48;99353.13;;;8.22;86.54
13869;BME280;7004;48.206;16.402;2023-03-23T05:08:24;99347.66;;;8.25;85.42
13869;BME280;7004;48.206;16.402;2023-03-23T05:10:56;99360.59;;;8.00;86.03
13869;BME280;7004;48.206;16.402;2023-03-23T05:13:23;99358.63;;;7.73;88.21
13869;BME280;7004;48.206;16.402;2023-03-23T05:15:49;99359.28;;;8.07;86.31
13869;BME280;7004;48.206;16.402;2023-03-23T05:18:16;99365.03;;;8.14;86.11
13869;BME280;7004;48.206;16.402;2023-03-23T05:20:42;99372.56;;;7.90;85.94
13869;BME280;7004;48.206;16.402;2023-03-23T05:23:09;99371.03;;;7.85;86.62
13869;BME280;7004;48.206;16.402;2023-03-23T05:25:36;99374.44;;;7.87;87.40
13869;BME280;7004;48.206;16.402;2023-03-23T05:28:10;99379.28;;;7.95;86.61
13869;BME280;7004;48.206;16.402;2023-03-23T05:30:38;99381.38;;;8.04;85.94
13869;BME280;7004;48.206;16.402;2023-03-23T05:33:05;99383.75;;;7.93;85.71
13869;BME280;7004;48.206;16.402;2023-03-23T05:35:32;99383.81;;;8.07;86.37
13869;BME280;7004;48.206;16.402;2023-03-23T05:37:58;99386.59;;;8.20;85.65
13869;BME280;7004;48.206;16.402;2023-03-23T05:40:25;99386.28;;;8.25;84.92
13869;BME280;7004;48.206;16.402;2023-03-23T05:42:52;99386.03;;;8.29;85.40
13869;BME280;7004;48.206;16.402;2023-03-23T05:45:18;99390.44;;;8.29;85.95
13869;BME280;7004;48.206;16.402;2023-03-23T05:47:44;99390.84;;;8.37;84.87
13869;BME280;7004;48.206;16.402;2023-03-23T05:50:11;99396.75;;;8.57;85.18
13869;BME280;7004;48.206;16.402;2023-03-23T05:52:39;99395.25;;;8.95;82.94
13869;BME280;7004;48.206;16.402;2023-03-23T05:55:07;99393.53;;;8.94;83.17
13869;BME280;7004;48.206;16.402;2023-03-23T05:57:34;99388.22;;;9.23;81.22
13869;BME280;7004;48.206;16.402;2023-03-23T06:00:00;99393.41;;;9.25;82.07
13869;BME280;7004;48.206;16.402;2023-03-23T06:02:32;99399.41;;;8.85;85.99
13869;BME280;7004;48.206;16.402;2023-03-23T06:04:58;99393.13;;;9.29;85.31
13869;BME280;7004;48.206;16.402;2023-03-23T06:07:25;99398.41;;;9.15;86.79
13869;BME280;7004;48.206;16.402;2023-03-23T06:09:52;99399.44;;;9.27;86.11
13869;BME280;7004;48.206;16.402;2023-03-23T06:12:19;99403.44;;;9.47;84.90
13869;BME280;7004;48.206;16.402;2023-03-23T06:14:48;99397.84;;;9.66;82.92
13869;BME280;7004;48.206;16.402;2023-03-23T06:17:17;99391.59;;;9.67;82.37
13869;BME280;7004;48.206;16.402;2023-03-23T06:19:44;99397.59;;;9.56;81.83
13869;BME280;7004;48.206;16.402;2023-03-23T06:22:12;99409.06;;;9.96;80.28
13869;BME280;7004;48.206;16.402;2023-03-23T06:24:39;99409.69;;;10.00;80.66
13869;BME280;7004;48.206;16.402;2023-03-23T06:27:05;99409.25;;;10.06;81.70
13869;BME280;7004;48.206;16.402;2023-03-23T06:29:31;99408.75;;;10.41;78.68
13869;BME280;7004;48.206;16.402;2023-03-23T06:32:01;99407.25;;;10.37;81.65
13869;BME280;7004;48.206;16.402;2023-03-23T06:34:28;99408.84;;;10.65;78.31
13869;BME280;7004;48.206;16.402;2023-03-23T06:36:56;99399.03;;;10.80;75.74
13869;BME280;7004;48.206;16.402;2023-03-23T06:39:23;99402.72;;;10.90;76.11
13869;BME280;7004;48.206;16.402;2023-03-23T06:41:50;99402.72;;;11.03;74.97
13869;BME280;7004;48.206;16.402;2023-03-23T06:44:16;99397.69;;;11.24;73.43
13869;BME280;7004;48.206;16.402;2023-03-23T06:46:43;99393.75;;;11.42;70.74
13869;BME280;7004;48.206;16.402;2023-03-23T06:49:09;99391.44;;;11.25;71.40
13869;BME280;7004;48.206;16.402;2023-03-23T06:51:36;99394.25;;;11.47;69.15
13869;BME280;7004;48.206;16.402;2023-03-23T06:54:04;99400.47;;;11.46;68.56
13869;BME280;7004;48.206;16.402;2023-03-23T06:56:31;99403.94;;;11.96;66.81
13869;BME280;7004;48.206;16.402;2023-03-23T06:58:57;99405.19;;;11.67;66.29
13869;BME280;7004;48.206;16.402;2023-03-23T07:01:23;99407.03;;;11.77;65.25
13869;BME280;7004;48.206;16.402;2023-03-23T07:03:50;99403.09;;;11.96;65.66
13869;BME280;7004;48.206;16.402;2023-03-23T07:06:16;99405.59;;;11.97;65.08
13869;BME280;7004;48.206;16.402;2023-03-23T07:08:42;99403.56;;;12.01;64.92
13869;BME280;7004;48.206;16.402;2023-03-23T07:11:08;99406.47;;;12.33;63.07
13869;BME280;7004;48.206;16.402;2023-03-23T07:13:36;99404.31;;;12.38;63.75
13869;BME280;7004;48.206;16.402;2023-03-23T07:16:05;99410.00;;;12.10;62.88
13869;BME280;7004;48.206;16.402;2023-03-23T07:18:32;99414.22;;;12.12;63.50
13869;BME280;7004;48.206;16.402;2023-03-23T07:20:59;99417.22;;;12.43;63.06
13869;BME280;7004;48.206;16.402;2023-03-23T07:23:25;99423.69;;;12.28;64.13
13869;BME280;7004;48.206;16.402;2023-03-23T07:25:51;99417.09;;;12.09;63.57
13869;BME280;7004;48.206;16.402;2023-03-23T07:28:19;99414.00;;;12.15;62.90
13869;BME280;7004;48.206;16.402;2023-03-23T07:30:46;99415.66;;;11.68;66.13
13869;BME280;7004;48.206;16.402;2023-03-23T07:33:12;99415.81;;;12.26;63.96
13869;BME280;7004;48.206;16.402;2023-03-23T07:35:39;99424.19;;;12.44;62.17
13869;BME280;7004;48.206;16.402;2023-03-23T07:38:06;99423.28;;;12.21;63.00
13869;BME280;7004;48.206;16.402;2023-03-23T07:40:33;99431.22;;;12.21;62.55
13869;BME280;7004;48.206;16.402;2023-03-23T07:43:00;99424.84;;;12.23;62.32
13869;BME280;7004;48.206;16.402;2023-03-23T07:45:27;99418.69;;;12.58;60.99
13869;BME280;7004;48.206;16.402;2023-03-23T07:47:53;99416.69;;;12.02;63.27
13869;BME280;7004;48.206;16.402;2023-03-23T07:50:20;99413.00;;;12.40;62.22
13869;BME280;7004;48.206;16.402;2023-03-23T07:52:57;99416.22;;;12.33;62.13
13869;BME280;7004;48.206;16.402;2023-03-23T07:55:24;99409.78;;;12.71;60.07
13869;BME280;7004;48.206;16.402;2023-03-23T07:57:52;99413.66;;;12.78;61.29
13869;BME280;7004;48.206;16.402;2023-03-23T08:00:22;99411.44;;;12.49;60.39
13869;BME280;7004;48.206;16.402;2023-03-23T08:02:55;99407.16;;;12.82;59.08
13869;BME280;7004;48.206;16.402;2023-03-23T08:05:23;99413.31;;;13.05;59.02
13869;BME280;7004;48.206;16.402;2023-03-23T08:07:53;99423.69;;;12.28;61.52
13869;BME280;7004;48.206;16.402;2023-03-23T08:10:21;99413.31;;;12.82;60.19
13869;BME280;7004;48.206;16.402;2023-03-23T08:12:52;99417.19;;;13.23;58.55
13869;BME280;7004;48.206;16.402;2023-03-23T08:15:19;99409.34;;;13.44;57.93
13869;BME280;7004;48.206;16.402;2023-03-23T08:17:48;99408.38;;;13.34;58.23
13869;BME280;7004;48.206;16.402;2023-03-23T08:20:15;99400.53;;;13.32;58.54
13869;BME280;7004;48.206;16.402;2023-03-23T08:22:54;99409.44;;;13.54;57.72
13869;BME280;7004;48.206;16.402;2023-03-23T08:25:22;99413.28;;;13.61;58.06
13869;BME280;7004;48.206;16.402;2023-03-23T08:27:50;99416.03;;;13.71;57.62
13869;BME280;7004;48.206;16.402;2023-03-23T08:30:19;99418.47;;;13.51;57.85
13869;BME280;7004;48.206;16.402;2023-03-23T08:32:46;99418.59;;;13.72;57.27
13869;BME280;7004;48.206;16.402;2023-03-23T08:35:14;99423.69;;;13.30;59.65
13869;BME280;7004;48.206;16.402;2023-03-23T08:37:42;99420.81;;;13.45;58.11
13869;BME280;7004;48.206;16.402;2023-03-23T08:40:10;99429.81;;;13.20;58.85
13869;BME280;7004;48.206;16.402;2023-03-23T08:42:38;99426.84;;;13.36;58.11
13869;BME280;7004;48.206;16.402;2023-03-23T08:45:11;99425.34;;;13.54;57.91
13869;BME280;7004;48.206;16.402;2023-03-23T08:47:38;99426.13;;;14.53;55.71
13869;BME280;7004;48.206;16.402;2023-03-23T08:50:14;99418.84;;;14.02;55.59
13869;BME280;7004;48.206;16.402;2023-03-23T08:52:41;99428.03;;;14.51;55.56
13869;BME280;7004;48.206;16.402;2023-03-23T08:55:08;99426.69;;;15.39;52.24
13869;BME280;7004;48.206;16.402;2023-03-23T08:57:37;99429.09;;;15.42;51.25
13869;BME280;7004;48.206;16.402;2023-03-23T09:00:07;99433.47;;;16.32;49.26
13869;BME280;7004;48.206;16.402;2023-03-23T09:02:46;99418.41;;;17.72;46.55
13869;BME280;7004;48.206;16.402;2023-03-23T09:05:19;99419.81;;;16.54;47.74
13869;BME280;7004;48.206;16.402;2023-03-23T09:07:48;99412.31;;;17.24;46.58
13869;BME280;7004;48.206;16.402;2023-03-23T09:10:16;99410.78;;;18.31;44.66
13869;BME280;7004;48.206;16.402;2023-03-23T09:12:44;99408.09;;;17.77;44.34
13869;BME280;7004;48.206;16.402;2023-03-23T09:15:15;99405.41;;;18.93;42.48
13869;BME280;7004;48.206;16.402;2023-03-23T09:17:45;99418.88;;;18.39;43.63
13869;BME280;7004;48.206;16.402;2023-03-23T09:20:16;99420.72;;;18.21;44.33
13869;BME280;7004;48.206;16.402;2023-03-23T09:22:45;99419.84;;;16.35;47.45
13869;BME280;7004;48.206;16.402;2023-03-23T09:25:15;99418.00;;;17.12;46.21
13869;BME280;7004;48.206;16.402;2023-03-23T09:27:45;99411.63;;;19.28;42.55
13869;BME280;7004;48.206;16.402;2023-03-23T09:30:13;99417.88;;;18.76;42.72
13869;BME280;7004;48.206;16.402;2023-03-23T09:32:45;99415.25;;;19.18;42.84
13869;BME280;7004;48.206;16.402;2023-03-23T09:35:14;99412.59;;;17.59;44.43
13869;BME280;7004;48.206;16.402;2023-03-23T09:37:46;99421.88;;;18.36;44.32
13869;BME280;7004;48.206;16.402;2023-03-23T09:40:21;99407.69;;;20.15;40.82
13869;BME280;7004;48.206;16.402;2023-03-23T09:48:57;99414.88;;;19.48;42.48
13869;BME280;7004;48.206;16.402;2023-03-23T09:51:40;99413.97;;;18.96;42.67
13869;BME280;7004;48.206;16.402;2023-03-23T09:54:34;99412.81;;;19.33;42.89
13869;BME280;7004;48.206;16.402;2023-03-23T09:57:02;99398.97;;;20.38;41.71
13869;BME280;7004;48.206;16.402;2023-03-23T09:59:42;99388.56;;;20.59;40.35
13869;BME280;7004;48.206;16.402;2023-03-23T10:04:56;99392.44;;;20.57;40.41
13869;BME280;7004;48.206;16.402;2023-03-23T10:07:27;99382.75;;;21.03;39.74
13869;BME280;7004;48.206;16.402;2023-03-23T10:10:00;99377.09;;;20.90;39.84
13869;BME280;7004;48.206;16.402;2023-03-23T10:12:49;99378.09;;;21.99;37.16
13869;BME280;7004;48.206;16.402;2023-03-23T10:15:29;99382.44;;;20.98;39.53
13869;BME280;7004;48.206;16.402;2023-03-23T10:18:02;99377.34;;;22.13;38.38
13869;BME280;7004;48.206;16.402;2023-03-23T10:20:37;99374.50;;;22.07;36.92
13869;BME280;7004;48.206;16.402;2023-03-23T10:29:34;99368.34;;;21.04;37.92
13869;BME280;7004;48.206;16.402;2023-03-23T10:32:17;99363.59;;;21.85;36.36
13869;BME280;7004;48.206;16.402;2023-03-23T10:34:56;99357.31;;;22.39;36.20
13869;BME280;7004;48.206;16.402;2023-03-23T10:37:34;99359.63;;;21.73;36.92
13869;BME280;7004;48.206;16.402;2023-03-23T10:40:05;99352.97;;;21.84;36.25
13869;BME280;7004;48.206;16.402;2023-03-23T10:42:37;99353.22;;;21.97;36.04
13869;BME280;7004;48.206;16.402;2023-03-23T10:47:47;99346.78;;;22.06;35.05
13869;BME280;7004;48.206;16.402;2023-03-23T10:50:22;99349.63;;;22.04;35.46
13869;BME280;7004;48.206;16.402;2023-03-23T10:52:50;99343.50;;;22.86;34.31
13869;BME280;7004;48.206;16.402;2023-03-23T10:55:24;99338.22;;;23.08;33.57
13869;BME280;7004;48.206;16.402;2023-03-23T10:58:25;99323.50;;;23.40;33.12
13869;BME280;7004;48.206;16.402;2023-03-23T11:00:55;99326.97;;;22.89;33.74
13869;BME280;7004;48.206;16.402;2023-03-23T11:03:28;99328.63;;;22.61;34.75
13869;BME280;7004;48.206;16.402;2023-03-23T11:06:06;99326.72;;;22.32;35.31
13869;BME280;7004;48.206;16.402;2023-03-23T11:08:48;99317.41;;;23.89;32.59
13869;BME280;7004;48.206;16.402;2023-03-23T11:11:19;99328.63;;;22.90;34.16
13869;BME280;7004;48.206;16.402;2023-03-23T11:13:49;99325.81;;;23.43;32.98
13869;BME280;7004;48.206;16.402;2023-03-23T11:16:30;99332.13;;;21.86;34.95
13869;BME280;7004;48.206;16.402;2023-03-23T11:18:59;99331.09;;;21.87;35.15
13869;BME280;7004;48.206;16.402;2023-03-23T11:21:27;99323.72;;;22.94;33.75
13869;BME280;7004;48.206;16.402;2023-03-23T11:23:57;99318.28;;;24.18;31.73
13869;BME280;7004;48.206;16.402;2023-03-23T11:26:35;99304.25;;;23.65;32.44
13869;BME280;7004;48.206;16.402;2023-03-23T11:29:09;99308.22;;;23.69;32.17
13869;BME280;7004;48.206;16.402;2023-03-23T11:34:33;99316.34;;;22.88;33.52
13869;BME280;7004;48.206;16.402;2023-03-23T11:37:11;99298.03;;;23.28;31.98
13869;BME280;7004;48.206;16.402;2023-03-23T11:39:56;99293.34;;;23.00;32.56
13869;BME280;7004;48.206;16.402;2023-03-23T11:42:48;99295.88;;;23.38;32.77
13869;BME280;7004;48.206;16.402;2023-03-23T11:52:00;99285.69;;;23.19;32.70
13869;BME280;7004;48.206;16.402;2023-03-23T11:54:34;99299.59;;;22.33;33.66
13869;BME280;7004;48.206;16.402;2023-03-23T11:57:10;99291.56;;;22.48;34.12
13869;BME280;7004;48.206;16.402;2023-03-23T11:59:38;99297.41;;;22.37;34.74
13869;BME280;7004;48.206;16.402;2023-03-23T12:08:30;99280.91;;;22.17;36.83
13869;BME280;7004;48.206;16.402;2023-03-23T12:11:31;99282.16;;;22.29;36.08
13869;BME280;7004;48.206;16.402;2023-03-23T12:14:19;99283.13;;;22.13;35.16
13869;BME280;7004;48.206;16.402;2023-03-23T12:17:07;99275.94;;;21.68;36.58
13869;BME280;7004;48.206;16.402;2023-03-23T12:20:00;99271.41;;;21.37;36.97
13869;BME280;7004;48.206;16.402;2023-03-23T12:22:40;99267.00;;;21.13;37.49
13869;BME280;7004;48.206;16.402;2023-03-23T12:28:52;99266.44;;;21.80;36.44
13869;BME280;7004;48.206;16.402;2023-03-23T12:45:06;99258.44;;;21.72;35.65
13869;BME280;7004;48.206;16.402;2023-03-23T12:48:02;99256.44;;;21.43;37.43
13869;BME280;7004;48.206;16.402;2023-03-23T12:50:35;99252.84;;;21.50;37.03
13869;BME280;7004;48.206;16.402;2023-03-23T12:53:16;99249.28;;;20.95;38.12
13869;BME280;7004;48.206;16.402;2023-03-23T12:56:02;99248.88;;;21.46;38.21
13869;BME280;7004;48.206;16.402;2023-03-23T12:58:36;99234.31;;;22.16;37.97
13869;BME280;7004;48.206;16.402;2023-03-23T13:01:10;99234.44;;;22.38;36.97
13869;BME280;7004;48.206;16.402;2023-03-23T13:04:12;99236.00;;;21.79;36.82
13869;BME280;7004;48.206;16.402;2023-03-23T13:06:41;99232.00;;;21.52;36.69
13869;BME280;7004;48.206;16.402;2023-03-23T13:09:29;99232.72;;;22.07;36.96
13869;BME280;7004;48.206;16.402;2023-03-23T13:11:58;99227.84;;;22.70;35.15
13869;BME280;7004;48.206;16.402;2023-03-23T13:17:47;99222.81;;;22.82;33.29
13869;BME280;7004;48.206;16.402;2023-03-23T13:20:54;99230.22;;;23.09;32.87
13869;BME280;7004;48.206;16.402;2023-03-23T13:23:35;99221.88;;;23.04;32.40
13869;BME280;7004;48.206;16.402;2023-03-23T13:26:11;99215.16;;;22.85;32.19
13869;BME280;7004;48.206;16.402;2023-03-23T13:29:22;99207.97;;;22.71;32.29
13869;BME280;7004;48.206;16.402;2023-03-23T13:32:17;99215.31;;;22.48;33.21
13869;BME280;7004;48.206;16.402;2023-03-23T13:34:47;99217.09;;;22.40;33.40
13869;BME280;7004;48.206;16.402;2023-03-23T13:37:20;99206.09;;;23.44;31.71
13869;BME280;7004;48.206;16.402;2023-03-23T13:42:34;99199.94;;;23.29;32.43
13869;BME280;7004;48.206;16.402;2023-03-23T13:47:44;99197.31;;;22.48;33.74
13869;BME280;7004;48.206;16.402;2023-03-23T13:52:53;99201.72;;;22.11;34.26
13869;BME280;7004;48.206;16.402;2023-03-23T13:55:40;99191.47;;;22.44;35.56
13869;BME280;7004;48.206;16.402;2023-03-23T14:03:33;99181.97;;;22.49;34.16
13869;BME280;7004;48.206;16.402;2023-03-23T14:06:13;99185.25;;;22.44;34.10
13869;BME280;7004;48.206;16.402;2023-03-23T14:08:47;99197.50;;;22.32;34.25
13869;BME280;7004;48.206;16.402;2023-03-23T14:13:51;99195.69;;;21.56;35.26
13869;BME280;7004;48.206;16.402;2023-03-23T14:16:28;99188.59;;;21.78;35.14
13869;BME280;7004;48.206;16.402;2023-03-23T14:19:00;99190.75;;;22.13;34.83
13869;BME280;7004;48.206;16.402;2023-03-23T14:21:39;99191.78;;;22.12;34.83
13869;BME280;7004;48.206;16.402;2023-03-23T14:24:40;99188.47;;;22.54;33.84
13869;BME280;7004;48.206;16.402;2023-03-23T14:27:14;99201.91;;;22.10;34.39
13869;BME280;7004;48.206;16.402;2023-03-23T14:29:41;99199.16;;;22.33;34.44
13869;BME280;7004;48.206;16.402;2023-03-23T14:32:19;99196.84;;;22.30;33.94
13869;BME280;7004;48.206;16.402;2023-03-23T14:34:52;99200.63;;;22.20;33.99
13869;BME280;7004;48.206;16.402;2023-03-23T14:37:20;99193.13;;;22.60;33.69
13869;BME280;7004;48.206;16.402;2023-03-23T14:39:50;99198.75;;;22.80;34.23
13869;BME280;7004;48.206;16.402;2023-03-23T14:42:27;99190.59;;;22.74;34.07
13869;BME280;7004;48.206;16.402;2023-03-23T14:44:53;99201.31;;;22.37;33.77
13869;BME280;7004;48.206;16.402;2023-03-23T14:47:27;99182.69;;;22.13;34.19
13869;BME280;7004;48.206;16.402;2023-03-23T14:50:00;99193.22;;;22.22;33.85
13869;BME280;7004;48.206;16.402;2023-03-23T14:52:36;99193.00;;;22.09;34.70
13869;BME280;7004;48.206;16.402;2023-03-23T14:55:19;99187.88;;;21.99;34.12
13869;BME280;7004;48.206;16.402;2023-03-23T14:57:48;99189.56;;;22.15;33.98
13869;BME280;7004;48.206;16.402;2023-03-23T15:02:50;99173.88;;;22.04;34.62